createdAt,value
2018-12-19T00:03:40.691Z,13.70
2018-12-19T00:06:44.001Z,12.60
2018-12-19T00:09:47.422Z,17.97
2018-12-19T00:12:50.796Z,14.67
2018-12-19T00:15:54.207Z,15.63
2018-12-19T00:18:57.607Z,17.30
2018-12-19T00:22:00.945Z,13.17
2018-12-19T00:25:05.017Z,16.23
2018-12-19T00:28:08.341Z,14.67
2018-12-19T00:31:11.716Z,15.83
2018-12-19T00:34:15.033Z,16.93
2018-12-19T00:37:18.413Z,14.73
2018-12-19T00:40:21.725Z,15.67
2018-12-19T00:43:25.053Z,15.87
2018-12-19T00:46:28.370Z,15.23
2018-12-19T00:49:31.693Z,19.47
2018-12-19T00:52:35.049Z,19.93
2018-12-19T00:55:38.369Z,21.43
2018-12-19T00:58:41.718Z,15.40
2018-12-19T01:01:45.029Z,20.10
2018-12-19T01:04:48.415Z,19.60
2018-12-19T01:07:51.829Z,17.90
2018-12-19T01:10:55.137Z,15.33
2018-12-19T01:13:58.453Z,15.63
2018-12-19T01:17:01.828Z,17.48
2018-12-19T01:20:05.997Z,15.17
2018-12-19T01:23:09.345Z,14.30
2018-12-19T01:26:12.666Z,13.63
2018-12-19T01:29:15.985Z,13.87
2018-12-19T01:32:19.328Z,13.07
2018-12-19T01:35:22.690Z,14.60
2018-12-19T01:38:26.040Z,14.97
2018-12-19T01:41:29.356Z,11.13
2018-12-19T01:44:32.794Z,12.20
2018-12-19T01:47:36.133Z,13.23
2018-12-19T01:50:39.452Z,12.77
2018-12-19T01:53:42.844Z,11.97
2018-12-19T01:56:46.158Z,13.27
2018-12-19T01:59:49.481Z,13.63
2018-12-19T02:06:09.720Z,11.10
2018-12-19T02:09:13.110Z,10.07
2018-12-19T02:12:16.420Z,9.10
2018-12-19T02:15:19.757Z,10.50
2018-12-19T02:18:23.072Z,10.17
2018-12-19T02:21:26.386Z,7.13
2018-12-19T02:24:29.702Z,9.77
2018-12-19T02:27:33.012Z,9.00
2018-12-19T02:30:36.329Z,11.27
2018-12-19T02:33:39.689Z,11.57
2018-12-19T02:36:43.006Z,8.23
2018-12-19T02:39:46.325Z,10.97
2018-12-19T02:42:49.642Z,9.73
2018-12-19T02:45:52.974Z,10.63
2018-12-19T02:48:56.374Z,7.77
2018-12-19T02:51:59.681Z,8.60
2018-12-19T02:55:03.038Z,7.07
2018-12-19T02:58:06.352Z,10.10
2018-12-19T03:01:10.084Z,10.00
2018-12-19T03:04:13.413Z,12.57
2018-12-19T03:07:16.730Z,13.17
2018-12-19T03:10:20.085Z,11.70
2018-12-19T03:13:23.417Z,12.73
2018-12-19T03:16:26.773Z,13.17
2018-12-19T03:19:30.161Z,12.13
2018-12-19T03:22:33.514Z,10.40
2018-12-19T03:25:36.828Z,10.53
2018-12-19T03:28:40.260Z,9.57
2018-12-19T03:31:44.358Z,12.03
2018-12-19T03:34:47.760Z,8.93
2018-12-19T03:37:51.072Z,10.93
2018-12-19T03:40:54.558Z,11.50
2018-12-19T03:43:57.879Z,9.60
2018-12-19T03:47:01.225Z,10.97
2018-12-19T03:50:04.766Z,10.93
2018-12-19T03:53:08.082Z,10.37
2018-12-19T03:56:11.396Z,13.23
2018-12-19T03:59:14.716Z,9.87
2018-12-19T04:02:18.024Z,12.27
2018-12-19T04:05:21.365Z,11.47
2018-12-19T04:08:24.755Z,12.40
2018-12-19T04:11:28.120Z,13.17
2018-12-19T04:14:31.435Z,10.50
2018-12-19T04:17:34.781Z,11.60
2018-12-19T04:20:38.149Z,11.53
2018-12-19T04:23:41.458Z,9.03
2018-12-19T04:26:44.785Z,10.70
2018-12-19T04:29:48.542Z,10.43
2018-12-19T04:32:52.230Z,8.50
2018-12-19T04:35:55.822Z,8.83
2018-12-19T04:38:59.186Z,9.13
2018-12-19T04:42:02.501Z,10.10
2018-12-19T04:45:06.063Z,10.77
2018-12-19T04:48:09.401Z,10.27
2018-12-19T04:51:12.720Z,8.17
2018-12-19T04:54:16.039Z,9.63
2018-12-19T04:57:19.371Z,10.27
2018-12-19T05:00:22.803Z,12.07
2018-12-19T05:03:26.166Z,11.80
2018-12-19T05:06:29.506Z,8.03
2018-12-19T05:09:33.009Z,7.63
2018-12-19T05:12:36.302Z,7.80
2018-12-19T05:15:39.701Z,6.57
2018-12-19T05:18:43.079Z,6.12
2018-12-19T05:21:46.381Z,9.80
2018-12-19T05:24:49.701Z,6.87
2018-12-19T05:27:53.082Z,5.83
2018-12-19T05:30:56.397Z,5.83
2018-12-19T05:33:59.738Z,7.33
2018-12-19T05:37:03.115Z,4.78
2018-12-19T05:40:07.877Z,4.77
2018-12-19T05:43:11.213Z,7.08
2018-12-19T05:46:14.592Z,5.93
2018-12-19T05:49:17.998Z,3.87
2018-12-19T05:55:40.248Z,6.60
2018-12-19T05:58:43.659Z,5.67
2018-12-19T06:01:47.112Z,6.20
2018-12-19T06:04:50.445Z,6.77
2018-12-19T06:07:53.853Z,7.37
2018-12-19T06:10:57.167Z,6.80
2018-12-19T06:14:00.542Z,4.13
2018-12-19T06:17:03.863Z,5.57
2018-12-19T06:20:07.346Z,5.80
2018-12-19T06:23:10.750Z,5.03
2018-12-19T06:26:14.112Z,2.17
2018-12-19T06:29:17.440Z,3.10
2018-12-19T06:32:20.758Z,3.03
2018-12-19T06:35:24.141Z,2.43
2018-12-19T06:38:27.574Z,3.40
2018-12-19T06:41:30.881Z,3.07
2018-12-19T06:44:34.190Z,2.67
2018-12-19T06:47:37.539Z,2.07
2018-12-19T06:50:40.937Z,3.17
2018-12-19T06:53:44.272Z,2.25
2018-12-19T06:56:47.639Z,2.77
2018-12-19T06:59:51.025Z,1.93
2018-12-19T07:02:54.329Z,2.93
2018-12-19T07:05:57.726Z,1.50
2018-12-19T07:09:01.172Z,1.70
2018-12-19T07:12:04.637Z,2.30
2018-12-19T07:15:08.318Z,3.13
2018-12-19T07:18:11.621Z,3.83
2018-12-19T07:21:15.069Z,4.15
2018-12-19T07:24:18.416Z,3.00
2018-12-19T07:27:21.750Z,2.77
2018-12-19T07:30:25.161Z,4.43
2018-12-19T07:33:28.460Z,5.30
2018-12-19T07:36:31.769Z,7.27
2018-12-19T07:39:35.153Z,10.53
2018-12-19T07:42:38.520Z,20.23
2018-12-19T07:45:41.844Z,26.00
2018-12-19T07:48:45.197Z,16.15
2018-12-19T07:51:48.526Z,18.47
2018-12-19T07:54:51.851Z,8.50
2018-12-19T07:57:55.192Z,3.52
2018-12-19T08:00:58.489Z,10.20
2018-12-19T08:04:02.528Z,5.57
2018-12-19T08:07:05.922Z,5.93
2018-12-19T08:10:09.333Z,10.67
2018-12-19T08:13:12.634Z,6.10
2018-12-19T08:16:16.018Z,6.77
2018-12-19T08:19:19.313Z,5.57
2018-12-19T08:22:22.629Z,2.40
2018-12-19T08:25:26.022Z,4.20
2018-12-19T08:28:29.346Z,4.78
2018-12-19T08:31:32.684Z,3.77
2018-12-19T08:34:36.017Z,3.03
2018-12-19T08:37:39.356Z,3.10
2018-12-19T08:40:42.653Z,3.47
2018-12-19T08:43:46.012Z,5.13
2018-12-19T08:46:49.410Z,5.47
2018-12-19T08:49:52.706Z,4.57
2018-12-19T08:52:56.118Z,4.37
2018-12-19T08:55:59.414Z,3.90
2018-12-19T08:59:02.716Z,3.70
2018-12-19T09:02:06.009Z,2.47
2018-12-19T09:05:09.405Z,1.77
2018-12-19T09:08:12.723Z,4.13
2018-12-19T09:11:16.082Z,2.70
2018-12-19T09:14:19.484Z,8.37
2018-12-19T09:17:22.825Z,4.93
2018-12-19T09:20:26.211Z,3.17
2018-12-19T09:23:29.600Z,1.87
2018-12-19T09:26:33.016Z,2.03
2018-12-19T09:29:36.521Z,2.13
2018-12-19T09:32:39.819Z,2.30
2018-12-19T09:35:43.112Z,23.63
2018-12-19T09:38:46.499Z,29.10
2018-12-19T09:41:49.816Z,11.33
2018-12-19T09:44:53.189Z,2.73
2018-12-19T09:47:56.503Z,3.20
2018-12-19T09:50:59.894Z,2.60
2018-12-19T09:54:03.289Z,3.42
2018-12-19T09:57:06.592Z,1.93
2018-12-19T10:03:33.037Z,2.33
2018-12-19T10:06:36.349Z,1.70
2018-12-19T10:09:39.640Z,3.70
2018-12-19T10:12:42.942Z,2.20
2018-12-19T10:15:46.301Z,2.40
2018-12-19T10:18:49.639Z,2.97
2018-12-19T10:21:52.942Z,3.87
2018-12-19T10:25:01.749Z,2.90
2018-12-19T10:28:05.267Z,3.30
2018-12-19T10:31:08.663Z,2.60
2018-12-19T10:34:12.010Z,2.23
2018-12-19T10:37:15.468Z,2.90
2018-12-19T10:40:18.843Z,3.67
2018-12-19T10:43:22.169Z,4.10
2018-12-19T10:46:25.564Z,1.97
2018-12-19T10:49:28.860Z,1.87
2018-12-19T10:52:32.164Z,2.67
2018-12-19T10:55:35.474Z,1.90
2018-12-19T10:58:38.878Z,2.77
2018-12-19T11:01:42.177Z,2.03
2018-12-19T11:04:45.656Z,3.10
2018-12-19T11:07:48.977Z,4.43
2018-12-19T11:10:52.344Z,6.07
2018-12-19T11:13:55.652Z,6.23
2018-12-19T11:16:59.202Z,6.37
2018-12-19T11:20:03.797Z,3.33
2018-12-19T11:23:07.178Z,4.70
2018-12-19T11:26:10.613Z,4.77
2018-12-19T11:29:13.929Z,3.70
2018-12-19T11:32:17.278Z,5.20
2018-12-19T11:35:20.605Z,3.87
2018-12-19T11:38:23.905Z,3.97
2018-12-19T11:41:27.196Z,5.78
2018-12-19T11:44:30.537Z,6.43
2018-12-19T11:47:33.978Z,6.00
2018-12-19T11:50:37.359Z,4.33
2018-12-19T11:53:40.773Z,6.47
2018-12-19T11:56:44.160Z,8.67
2018-12-19T11:59:47.572Z,19.80
2018-12-19T12:02:50.991Z,23.97
2018-12-19T12:05:54.376Z,23.47
2018-12-19T12:08:57.782Z,11.83
2018-12-19T12:12:01.177Z,6.03
2018-12-19T12:15:05.836Z,3.30
2018-12-19T12:18:09.366Z,4.12
2018-12-19T12:21:12.784Z,5.90
2018-12-19T12:24:16.442Z,4.27
2018-12-19T12:27:19.918Z,3.83
2018-12-19T12:30:24.221Z,1.90
2018-12-19T12:33:27.532Z,2.73
2018-12-19T12:36:30.928Z,2.73
2018-12-19T12:39:34.333Z,3.83
2018-12-19T12:42:37.951Z,3.53
2018-12-19T12:45:41.280Z,5.77
2018-12-19T12:48:44.624Z,9.80
2018-12-19T12:51:48.049Z,7.90
2018-12-19T12:54:51.429Z,7.50
2018-12-19T12:57:54.765Z,11.97
2018-12-19T13:00:58.132Z,6.07
2018-12-19T13:04:01.461Z,3.35
2018-12-19T13:07:04.825Z,4.90
2018-12-19T13:10:09.162Z,2.13
2018-12-19T13:13:12.554Z,5.87
2018-12-19T13:16:15.951Z,4.43
2018-12-19T13:19:19.251Z,5.97
2018-12-19T13:22:22.573Z,2.50
2018-12-19T13:25:25.959Z,5.33
2018-12-19T13:28:29.346Z,4.97
2018-12-19T13:31:32.642Z,6.27
2018-12-19T13:34:35.955Z,6.77
2018-12-19T13:37:39.259Z,14.90
2018-12-19T13:40:42.653Z,20.77
2018-12-19T13:43:46.003Z,15.63
2018-12-19T13:46:49.302Z,8.03
2018-12-19T13:49:52.714Z,6.07
2018-12-19T13:52:56.058Z,3.80
2018-12-19T13:55:59.381Z,7.23
2018-12-19T13:59:02.948Z,13.63
2018-12-19T14:02:06.345Z,10.67
2018-12-19T14:05:09.725Z,6.17
2018-12-19T14:08:13.021Z,5.23
2018-12-19T14:11:16.317Z,2.97
2018-12-19T14:14:19.612Z,4.70
2018-12-19T14:17:22.913Z,3.40
2018-12-19T14:20:26.211Z,4.97
2018-12-19T14:23:30.551Z,3.70
2018-12-19T14:26:33.928Z,6.67
2018-12-19T14:29:37.228Z,4.23
2018-12-19T14:32:40.658Z,5.03
2018-12-19T14:35:44.064Z,8.23
2018-12-19T14:38:47.381Z,10.50
2018-12-19T14:41:50.749Z,11.63
2018-12-19T14:44:54.190Z,15.43
2018-12-19T14:47:57.514Z,12.95
2018-12-19T14:51:00.878Z,11.47
2018-12-19T14:54:04.245Z,8.47
2018-12-19T14:57:07.554Z,5.07
2018-12-19T15:00:11.452Z,5.87
2018-12-19T15:03:14.855Z,6.30
2018-12-19T15:06:18.189Z,3.90
2018-12-19T15:09:21.540Z,4.33
2018-12-19T15:12:25.899Z,4.93
2018-12-19T15:15:29.520Z,6.03
2018-12-19T15:18:32.877Z,3.87
2018-12-19T15:21:36.212Z,2.60
2018-12-19T15:24:39.573Z,3.83
2018-12-19T15:27:42.864Z,7.27
2018-12-19T15:30:46.165Z,5.10
2018-12-19T15:33:49.508Z,4.43
2018-12-19T15:36:52.824Z,8.13
2018-12-19T15:39:56.204Z,4.73
2018-12-19T15:42:59.606Z,4.05
2018-12-19T15:46:02.916Z,6.40
2018-12-19T15:49:06.226Z,4.83
2018-12-19T15:52:09.540Z,5.65
2018-12-19T15:55:12.966Z,12.13
2018-12-19T15:58:16.355Z,13.13
2018-12-19T16:01:19.693Z,11.37
2018-12-19T16:04:22.989Z,11.03
2018-12-19T16:07:26.288Z,8.17
2018-12-19T16:10:29.582Z,7.07
2018-12-19T16:13:33.253Z,4.23
2018-12-19T16:16:36.632Z,5.17
2018-12-19T16:19:39.919Z,4.50
2018-12-19T16:22:43.252Z,3.50
2018-12-19T16:25:46.538Z,4.37
2018-12-19T16:28:49.844Z,4.07
2018-12-19T16:31:53.146Z,4.70
2018-12-19T16:34:56.471Z,4.43
2018-12-19T16:37:59.806Z,6.50
2018-12-19T16:41:03.140Z,5.83
2018-12-19T16:44:06.437Z,4.03
2018-12-19T16:47:09.833Z,7.03
2018-12-19T16:50:13.205Z,4.33
2018-12-19T16:53:16.500Z,5.57
2018-12-19T16:56:19.929Z,4.40
2018-12-19T16:59:23.333Z,7.40
2018-12-19T17:02:26.689Z,6.65
2018-12-19T17:05:30.038Z,6.80
2018-12-19T17:08:34.301Z,6.93
2018-12-19T17:11:37.644Z,8.57
2018-12-19T17:14:41.038Z,14.57
2018-12-19T17:17:44.333Z,13.03
2018-12-19T17:20:47.758Z,13.63
2018-12-19T17:23:51.145Z,37.90
2018-12-19T17:26:54.457Z,47.80
2018-12-19T17:29:57.849Z,22.47
2018-12-19T17:33:01.181Z,11.00
2018-12-19T17:36:05.349Z,8.47
2018-12-19T17:39:08.772Z,10.65
2018-12-19T17:42:12.152Z,7.23
2018-12-19T17:45:15.561Z,7.73
2018-12-19T17:48:18.889Z,9.30
2018-12-19T17:51:22.194Z,7.87
2018-12-19T17:54:25.530Z,6.47
2018-12-19T17:57:28.865Z,4.23
2018-12-19T18:00:32.247Z,6.80
2018-12-19T18:03:35.573Z,5.40
2018-12-19T18:06:38.872Z,5.33
2018-12-19T18:09:42.202Z,9.20
2018-12-19T18:12:45.650Z,6.83
2018-12-19T18:15:48.961Z,5.07
2018-12-19T18:18:52.332Z,5.03
2018-12-19T18:21:55.753Z,5.07
2018-12-19T18:24:59.072Z,6.80
2018-12-19T18:28:02.349Z,7.73
2018-12-19T18:31:05.749Z,5.47
2018-12-19T18:34:09.091Z,6.33
2018-12-19T18:37:12.414Z,4.87
2018-12-19T18:40:15.756Z,5.43
2018-12-19T18:43:19.077Z,5.67
2018-12-19T18:46:22.369Z,5.53
2018-12-19T18:49:25.750Z,9.43
2018-12-19T18:52:29.061Z,6.80
2018-12-19T18:55:32.426Z,5.33
2018-12-19T18:58:37.213Z,4.35
2018-12-19T19:01:40.669Z,4.72
2018-12-19T19:04:44.153Z,4.30
2018-12-19T19:07:47.574Z,4.80
2018-12-19T19:10:50.877Z,4.97
2018-12-19T19:13:54.174Z,5.63
2018-12-19T19:16:57.973Z,4.67
2018-12-19T19:20:01.274Z,4.93
2018-12-19T19:23:04.671Z,10.43
2018-12-19T19:26:08.102Z,8.40
2018-12-19T19:29:11.507Z,10.23
2018-12-19T19:32:14.822Z,10.20
2018-12-19T19:35:18.162Z,11.83
2018-12-19T19:38:21.470Z,8.67
2018-12-19T19:41:24.869Z,5.90
2018-12-19T19:44:28.150Z,7.87
2018-12-19T19:47:31.460Z,6.03
2018-12-19T19:50:34.866Z,5.60
2018-12-19T19:53:38.180Z,5.93
2018-12-19T19:56:41.465Z,5.77
2018-12-19T19:59:44.753Z,4.90
2018-12-19T20:02:48.059Z,6.70
2018-12-19T20:05:51.458Z,5.97
2018-12-19T20:08:57.127Z,6.40
2018-12-19T20:12:00.437Z,5.63
2018-12-19T20:15:04.518Z,7.20
2018-12-19T20:18:08.368Z,4.67
2018-12-19T20:21:11.661Z,8.20
2018-12-19T20:24:14.946Z,7.90
2018-12-19T20:27:18.374Z,11.77
2018-12-19T20:30:21.662Z,12.50
2018-12-19T20:33:26.189Z,6.67
2018-12-19T20:36:29.756Z,6.75
2018-12-19T20:39:33.050Z,7.33
2018-12-19T20:42:36.373Z,12.53
2018-12-19T20:45:39.749Z,6.97
2018-12-19T20:48:43.153Z,8.67
2018-12-19T20:51:47.053Z,6.93
2018-12-19T20:54:50.325Z,9.70
2018-12-19T20:57:53.653Z,7.57
2018-12-19T21:00:57.041Z,6.93
2018-12-19T21:04:00.458Z,6.57
2018-12-19T21:07:03.856Z,7.47
2018-12-19T21:10:08.157Z,8.37
2018-12-19T21:13:11.457Z,7.87
2018-12-19T21:16:14.804Z,8.60
2018-12-19T21:19:18.172Z,6.93
2018-12-19T21:22:21.481Z,9.30
2018-12-19T21:25:24.987Z,6.07
2018-12-19T21:28:28.375Z,5.23
2018-12-19T21:31:31.737Z,5.87
2018-12-19T21:34:35.104Z,4.47
2018-12-19T21:37:38.478Z,6.37
2018-12-19T21:40:41.928Z,4.90
2018-12-19T21:43:45.279Z,5.90
2018-12-19T21:46:48.793Z,5.25
2018-12-19T21:49:52.236Z,5.87
2018-12-19T21:52:55.721Z,5.33
2018-12-19T21:55:59.070Z,4.93
2018-12-19T21:59:02.471Z,4.27
2018-12-19T22:02:06.091Z,3.83
2018-12-19T22:05:09.427Z,6.83
2018-12-19T22:08:12.876Z,4.40
2018-12-19T22:11:16.347Z,4.43
2018-12-19T22:14:19.746Z,7.47
2018-12-19T22:17:28.656Z,4.93
2018-12-19T22:20:32.101Z,6.27
2018-12-19T22:23:35.586Z,5.37
2018-12-19T22:26:39.021Z,4.70
2018-12-19T22:29:42.600Z,5.07
2018-12-19T22:32:45.959Z,4.90
2018-12-19T22:35:49.322Z,6.07
2018-12-19T22:38:52.625Z,5.90
2018-12-19T22:41:55.921Z,4.20
2018-12-19T22:44:59.226Z,6.87
2018-12-19T22:48:02.638Z,6.97
2018-12-19T22:51:06.192Z,7.80
2018-12-19T22:54:09.619Z,5.13
2018-12-19T22:57:13.028Z,5.93
2018-12-19T23:00:17.152Z,4.80
2018-12-19T23:06:45.492Z,4.53
2018-12-19T23:09:48.951Z,5.40
2018-12-19T23:12:52.530Z,5.20
2018-12-19T23:15:55.968Z,4.73
2018-12-19T23:18:59.696Z,3.63
2018-12-19T23:22:03.205Z,5.10
2018-12-19T23:25:07.328Z,5.77
2018-12-19T23:28:10.864Z,5.43
2018-12-19T23:31:14.462Z,3.93
2018-12-19T23:34:17.821Z,5.47
2018-12-19T23:37:21.127Z,6.40
2018-12-19T23:40:24.658Z,5.37
2018-12-19T23:43:28.057Z,6.80
2018-12-19T23:46:33.357Z,5.37
2018-12-19T23:49:36.816Z,4.03
2018-12-19T23:52:40.394Z,3.90
2018-12-19T23:55:43.950Z,3.60
2018-12-19T23:58:47.321Z,5.80
